sensor_id;sensor_type;location;lat;lon;timestamp;pressure;altitude;pressure_sealevel;temperature
8227;BMP180;4154;48.810;9.012;2024-02-14T00:01:20;97446.00;;;2.50
8227;BMP180;4154;48.810;9.012;2024-02-14T00:03:46;97436.00;;;2.40
8227;BMP180;4154;48.810;9.012;2024-02-14T00:06:12;97444.00;;;2.40
8227;BMP180;4154;48.810;9.012;2024-02-14T00:08:38;97443.00;;;2.40
8227;BMP180;4154;48.810;9.012;2024-02-14T00:11:04;97450.00;;;2.40
8227;BMP180;4154;48.810;9.012;2024-02-14T00:13:29;97452.00;;;2.50
8227;BMP180;4154;48.810;9.012;2024-02-14T00:15:57;97440.00;;;2.50
8227;BMP180;4154;48.810;9.012;2024-02-14T00:18:23;97442.00;;;2.50
8227;BMP180;4154;48.810;9.012;2024-02-14T00:20:49;97454.00;;;2.50
8227;BMP180;4154;48.810;9.012;2024-02-14T00:23:14;97442.00;;;2.60
8227;BMP180;4154;48.810;9.012;2024-02-14T00:25:40;97447.00;;;2.60
8227;BMP180;4154;48.810;9.012;2024-02-14T00:28:06;97443.00;;;2.70
8227;BMP180;4154;48.810;9.012;2024-02-14T00:30:31;97440.00;;;2.80
8227;BMP180;4154;48.810;9.012;2024-02-14T00:32:57;97444.00;;;2.90
8227;BMP180;4154;48.810;9.012;2024-02-14T00:35:23;97440.00;;;3.00
8227;BMP180;4154;48.810;9.012;2024-02-14T00:37:49;97442.00;;;3.00
8227;BMP180;4154;48.810;9.012;2024-02-14T00:40:15;97443.00;;;3.10
8227;BMP180;4154;48.810;9.012;2024-02-14T00:42:40;97447.00;;;3.20
8227;BMP180;4154;48.810;9.012;2024-02-14T00:45:07;97447.00;;;3.20
8227;BMP180;4154;48.810;9.012;2024-02-14T00:47:36;97448.00;;;3.30
8227;BMP180;4154;48.810;9.012;2024-02-14T00:50:03;97447.00;;;3.30
8227;BMP180;4154;48.810;9.012;2024-02-14T00:52:28;97447.00;;;3.40
8227;BMP180;4154;48.810;9.012;2024-02-14T00:54:54;97456.00;;;3.30
8227;BMP180;4154;48.810;9.012;2024-02-14T00:57:21;97459.00;;;3.40
8227;BMP180;4154;48.810;9.012;2024-02-14T00:59:52;97467.00;;;3.50
8227;BMP180;4154;48.810;9.012;2024-02-14T01:02:18;97462.00;;;3.60
8227;BMP180;4154;48.810;9.012;2024-02-14T01:04:44;97463.00;;;3.70
8227;BMP180;4154;48.810;9.012;2024-02-14T01:07:10;97449.00;;;3.70
8227;BMP180;4154;48.810;9.012;2024-02-14T01:09:36;97462.00;;;3.70
8227;BMP180;4154;48.810;9.012;2024-02-14T01:12:02;97464.00;;;3.70
8227;BMP180;4154;48.810;9.012;2024-02-14T01:14:28;97461.00;;;3.80
8227;BMP180;4154;48.810;9.012;2024-02-14T01:16:53;97467.00;;;3.80
8227;BMP180;4154;48.810;9.012;2024-02-14T01:19:22;97457.00;;;3.80
8227;BMP180;4154;48.810;9.012;2024-02-14T01:21:51;97459.00;;;3.80
8227;BMP180;4154;48.810;9.012;2024-02-14T01:24:16;97462.00;;;3.80
8227;BMP180;4154;48.810;9.012;2024-02-14T01:26:42;97451.00;;;3.80
8227;BMP180;4154;48.810;9.012;2024-02-14T01:29:07;97446.00;;;3.90
8227;BMP180;4154;48.810;9.012;2024-02-14T01:31:33;97448.00;;;3.90
8227;BMP180;4154;48.810;9.012;2024-02-14T01:34:02;97451.00;;;3.90
8227;BMP180;4154;48.810;9.012;2024-02-14T01:36:31;97446.00;;;3.90
8227;BMP180;4154;48.810;9.012;2024-02-14T01:38:56;97442.00;;;3.90
8227;BMP180;4154;48.810;9.012;2024-02-14T01:41:22;97434.00;;;3.90
8227;BMP180;4154;48.810;9.012;2024-02-14T01:43:48;97434.00;;;3.90
8227;BMP180;4154;48.810;9.012;2024-02-14T01:46:15;97437.00;;;3.90
8227;BMP180;4154;48.810;9.012;2024-02-14T01:48:41;97437.00;;;3.90
8227;BMP180;4154;48.810;9.012;2024-02-14T01:51:11;97437.00;;;3.90
8227;BMP180;4154;48.810;9.012;2024-02-14T01:53:37;97435.00;;;3.90
8227;BMP180;4154;48.810;9.012;2024-02-14T01:56:04;97433.00;;;4.00
8227;BMP180;4154;48.810;9.012;2024-02-14T01:58:32;97431.00;;;4.00
8227;BMP180;4154;48.810;9.012;2024-02-14T02:00:59;97436.00;;;4.00
8227;BMP180;4154;48.810;9.012;2024-02-14T02:03:26;97433.00;;;4.00
8227;BMP180;4154;48.810;9.012;2024-02-14T02:05:53;97419.00;;;4.00
8227;BMP180;4154;48.810;9.012;2024-02-14T02:08:21;97410.00;;;4.00
8227;BMP180;4154;48.810;9.012;2024-02-14T02:10:47;97413.00;;;4.00
8227;BMP180;4154;48.810;9.012;2024-02-14T02:13:13;97430.00;;;4.10
8227;BMP180;4154;48.810;9.012;2024-02-14T02:15:41;97428.00;;;4.10
8227;BMP180;4154;48.810;9.012;2024-02-14T02:18:10;97422.00;;;4.20
8227;BMP180;4154;48.810;9.012;2024-02-14T02:20:35;97425.00;;;4.20
8227;BMP180;4154;48.810;9.012;2024-02-14T02:23:01;97422.00;;;4.20
8227;BMP180;4154;48.810;9.012;2024-02-14T02:25:27;97418.00;;;4.20
8227;BMP180;4154;48.810;9.012;2024-02-14T02:27:53;97413.00;;;4.30
8227;BMP180;4154;48.810;9.012;2024-02-14T02:30:22;97420.00;;;4.20
8227;BMP180;4154;48.810;9.012;2024-02-14T02:32:48;97408.00;;;4.20
8227;BMP180;4154;48.810;9.012;2024-02-14T02:35:15;97407.00;;;4.20
8227;BMP180;4154;48.810;9.012;2024-02-14T02:37:41;97403.00;;;4.20
8227;BMP180;4154;48.810;9.012;2024-02-14T02:40:08;97398.00;;;4.30
8227;BMP180;4154;48.810;9.012;2024-02-14T02:42:36;97401.00;;;4.20
8227;BMP180;4154;48.810;9.012;2024-02-14T02:45:02;97382.00;;;4.20
8227;BMP180;4154;48.810;9.012;2024-02-14T02:47:31;97375.00;;;4.20
8227;BMP180;4154;48.810;9.012;2024-02-14T02:49:57;97378.00;;;4.20
8227;BMP180;4154;48.810;9.012;2024-02-14T02:52:25;97373.00;;;4.20
8227;BMP180;4154;48.810;9.012;2024-02-14T02:54:51;97374.00;;;4.20
8227;BMP180;4154;48.810;9.012;2024-02-14T02:57:18;97363.00;;;4.20
8227;BMP180;4154;48.810;9.012;2024-02-14T02:59:44;97381.00;;;4.20
8227;BMP180;4154;48.810;9.012;2024-02-14T03:02:11;97381.00;;;4.20
8227;BMP180;4154;48.810;9.012;2024-02-14T03:04:38;97380.00;;;4.20
8227;BMP180;4154;48.810;9.012;2024-02-14T03:07:04;97379.00;;;4.20
8227;BMP180;4154;48.810;9.012;2024-02-14T03:09:37;97387.00;;;4.20
8227;BMP180;4154;48.810;9.012;2024-02-14T03:12:03;97395.00;;;4.20
8227;BMP180;4154;48.810;9.012;2024-02-14T03:14:33;97393.00;;;4.20
8227;BMP180;4154;48.810;9.012;2024-02-14T03:17:03;97388.00;;;4.20
8227;BMP180;4154;48.810;9.012;2024-02-14T03:19:29;97393.00;;;4.20
8227;BMP180;4154;48.810;9.012;2024-02-14T03:21:56;97399.00;;;4.10
8227;BMP180;4154;48.810;9.012;2024-02-14T03:24:22;97391.00;;;4.20
8227;BMP180;4154;48.810;9.012;2024-02-14T03:26:51;97402.00;;;4.10
8227;BMP180;4154;48.810;9.012;2024-02-14T03:29:19;97402.00;;;4.20
8227;BMP180;4154;48.810;9.012;2024-02-14T03:31:46;97398.00;;;4.20
8227;BMP180;4154;48.810;9.012;2024-02-14T03:34:12;97393.00;;;4.20
8227;BMP180;4154;48.810;9.012;2024-02-14T03:36:38;97404.00;;;4.30
8227;BMP180;4154;48.810;9.012;2024-02-14T03:39:05;97404.00;;;4.30
8227;BMP180;4154;48.810;9.012;2024-02-14T03:41:32;97412.00;;;4.30
8227;BMP180;4154;48.810;9.012;2024-02-14T03:43:58;97410.00;;;4.30
8227;BMP180;4154;48.810;9.012;2024-02-14T03:46:27;97407.00;;;4.30
8227;BMP180;4154;48.810;9.012;2024-02-14T03:48:56;97415.00;;;4.30
8227;BMP180;4154;48.810;9.012;2024-02-14T03:51:24;97415.00;;;4.30
8227;BMP180;4154;48.810;9.012;2024-02-14T03:53:50;97410.00;;;4.30
8227;BMP180;4154;48.810;9.012;2024-02-14T03:56:16;97404.00;;;4.30
8227;BMP180;4154;48.810;9.012;2024-02-14T03:58:42;97404.00;;;4.30
8227;BMP180;4154;48.810;9.012;2024-02-14T04:01:08;97392.00;;;4.30
8227;BMP180;4154;48.810;9.012;2024-02-14T04:03:34;97402.00;;;4.40
8227;BMP180;4154;48.810;9.012;2024-02-14T04:06:00;97402.00;;;4.40
8227;BMP180;4154;48.810;9.012;2024-02-14T04:08:26;97401.00;;;4.40
8227;BMP180;4154;48.810;9.012;2024-02-14T04:10:52;97407.00;;;4.40
8227;BMP180;4154;48.810;9.012;2024-02-14T04:13:19;97402.00;;;4.40
8227;BMP180;4154;48.810;9.012;2024-02-14T04:15:45;97399.00;;;4.40
8227;BMP180;4154;48.810;9.012;2024-02-14T04:18:14;97409.00;;;4.40
8227;BMP180;4154;48.810;9.012;2024-02-14T04:20:41;97420.00;;;4.40
8227;BMP180;4154;48.810;9.012;2024-02-14T04:23:07;97419.00;;;4.40
8227;BMP180;4154;48.810;9.012;2024-02-14T04:25:33;97416.00;;;4.40
8227;BMP180;4154;48.810;9.012;2024-02-14T04:28:00;97422.00;;;4.50
8227;BMP180;4154;48.810;9.012;2024-02-14T04:30:26;97437.00;;;4.50
8227;BMP180;4154;48.810;9.012;2024-02-14T04:32:51;97433.00;;;4.60
8227;BMP180;4154;48.810;9.012;2024-02-14T04:35:21;97427.00;;;4.60
8227;BMP180;4154;48.810;9.012;2024-02-14T04:37:47;97429.00;;;4.70
8227;BMP180;4154;48.810;9.012;2024-02-14T04:40:15;97433.00;;;4.80
8227;BMP180;4154;48.810;9.012;2024-02-14T04:42:41;97430.00;;;4.80
8227;BMP180;4154;48.810;9.012;2024-02-14T04:45:07;97438.00;;;4.80
8227;BMP180;4154;48.810;9.012;2024-02-14T04:47:35;97434.00;;;4.80
8227;BMP180;4154;48.810;9.012;2024-02-14T04:50:01;97434.00;;;4.80
8227;BMP180;4154;48.810;9.012;2024-02-14T04:52:29;97439.00;;;4.90
8227;BMP180;4154;48.810;9.012;2024-02-14T04:54:55;97428.00;;;4.90
8227;BMP180;4154;48.810;9.012;2024-02-14T04:57:22;97443.00;;;5.00
8227;BMP180;4154;48.810;9.012;2024-02-14T04:59:48;97438.00;;;5.00
8227;BMP180;4154;48.810;9.012;2024-02-14T05:02:14;97433.00;;;5.10
8227;BMP180;4154;48.810;9.012;2024-02-14T05:04:40;97436.00;;;5.10
8227;BMP180;4154;48.810;9.012;2024-02-14T05:07:05;97433.00;;;5.00
8227;BMP180;4154;48.810;9.012;2024-02-14T05:09:31;97432.00;;;5.00
8227;BMP180;4154;48.810;9.012;2024-02-14T05:11:57;97425.00;;;5.10
8227;BMP180;4154;48.810;9.012;2024-02-14T05:14:23;97417.00;;;5.00
8227;BMP180;4154;48.810;9.012;2024-02-14T05:16:49;97421.00;;;5.00
8227;BMP180;4154;48.810;9.012;2024-02-14T05:19:14;97425.00;;;5.10
8227;BMP180;4154;48.810;9.012;2024-02-14T05:21:40;97422.00;;;5.10
8227;BMP180;4154;48.810;9.012;2024-02-14T05:24:06;97414.00;;;5.00
8227;BMP180;4154;48.810;9.012;2024-02-14T05:26:33;97415.00;;;5.00
8227;BMP180;4154;48.810;9.012;2024-02-14T05:28:58;97420.00;;;5.00
8227;BMP180;4154;48.810;9.012;2024-02-14T05:31:24;97414.00;;;5.00
8227;BMP180;4154;48.810;9.012;2024-02-14T05:33:54;97419.00;;;5.00
8227;BMP180;4154;48.810;9.012;2024-02-14T05:36:20;97422.00;;;5.00
8227;BMP180;4154;48.810;9.012;2024-02-14T05:38:46;97421.00;;;4.90
8227;BMP180;4154;48.810;9.012;2024-02-14T05:41:11;97406.00;;;4.90
8227;BMP180;4154;48.810;9.012;2024-02-14T05:43:37;97414.00;;;5.00
8227;BMP180;4154;48.810;9.012;2024-02-14T05:46:04;97420.00;;;4.90
8227;BMP180;4154;48.810;9.012;2024-02-14T05:48:30;97416.00;;;5.00
8227;BMP180;4154;48.810;9.012;2024-02-14T05:50:55;97425.00;;;5.00
8227;BMP180;4154;48.810;9.012;2024-02-14T05:53:21;97419.00;;;5.00
8227;BMP180;4154;48.810;9.012;2024-02-14T05:55:47;97417.00;;;5.00
8227;BMP180;4154;48.810;9.012;2024-02-14T05:58:12;97419.00;;;5.00
8227;BMP180;4154;48.810;9.012;2024-02-14T06:00:38;97435.00;;;5.00
8227;BMP180;4154;48.810;9.012;2024-02-14T06:03:05;97428.00;;;5.10
8227;BMP180;4154;48.810;9.012;2024-02-14T06:05:31;97426.00;;;5.10
8227;BMP180;4154;48.810;9.012;2024-02-14T06:07:57;97413.00;;;5.20
8227;BMP180;4154;48.810;9.012;2024-02-14T06:10:23;97423.00;;;5.20
8227;BMP180;4154;48.810;9.012;2024-02-14T06:12:50;97425.00;;;5.30
8227;BMP180;4154;48.810;9.012;2024-02-14T06:15:16;97419.00;;;5.30
8227;BMP180;4154;48.810;9.012;2024-02-14T06:17:42;97415.00;;;5.30
8227;BMP180;4154;48.810;9.012;2024-02-14T06:20:09;97423.00;;;5.30
8227;BMP180;4154;48.810;9.012;2024-02-14T06:22:35;97421.00;;;5.30
8227;BMP180;4154;48.810;9.012;2024-02-14T06:25:01;97427.00;;;5.30
8227;BMP180;4154;48.810;9.012;2024-02-14T06:27:30;97435.00;;;5.30
8227;BMP180;4154;48.810;9.012;2024-02-14T06:29:56;97433.00;;;5.30
8227;BMP180;4154;48.810;9.012;2024-02-14T06:32:22;97425.00;;;5.40
8227;BMP180;4154;48.810;9.012;2024-02-14T06:34:48;97432.00;;;5.40
8227;BMP180;4154;48.810;9.012;2024-02-14T06:37:13;97430.00;;;5.50
8227;BMP180;4154;48.810;9.012;2024-02-14T06:39:39;97434.00;;;5.60
8227;BMP180;4154;48.810;9.012;2024-02-14T06:42:05;97434.00;;;5.50
8227;BMP180;4154;48.810;9.012;2024-02-14T06:44:30;97441.00;;;5.50
8227;BMP180;4154;48.810;9.012;2024-02-14T06:46:56;97437.00;;;5.70
8227;BMP180;4154;48.810;9.012;2024-02-14T06:49:21;97437.00;;;5.60
8227;BMP180;4154;48.810;9.012;2024-02-14T06:51:47;97444.00;;;5.60
8227;BMP180;4154;48.810;9.012;2024-02-14T06:54:13;97449.00;;;5.60
8227;BMP180;4154;48.810;9.012;2024-02-14T06:56:39;97444.00;;;5.70
8227;BMP180;4154;48.810;9.012;2024-02-14T06:59:05;97454.00;;;5.70
8227;BMP180;4154;48.810;9.012;2024-02-14T07:01:30;97444.00;;;5.70
8227;BMP180;4154;48.810;9.012;2024-02-14T07:03:58;97453.00;;;5.60
8227;BMP180;4154;48.810;9.012;2024-02-14T07:06:23;97450.00;;;5.60
8227;BMP180;4154;48.810;9.012;2024-02-14T07:08:49;97459.00;;;5.60
8227;BMP180;4154;48.810;9.012;2024-02-14T07:11:16;97454.00;;;5.60
8227;BMP180;4154;48.810;9.012;2024-02-14T07:13:42;97465.00;;;5.60
8227;BMP180;4154;48.810;9.012;2024-02-14T07:16:07;97461.00;;;5.60
8227;BMP180;4154;48.810;9.012;2024-02-14T07:18:36;97492.00;;;5.70
8227;BMP180;4154;48.810;9.012;2024-02-14T07:21:02;97481.00;;;5.70
8227;BMP180;4154;48.810;9.012;2024-02-14T07:23:31;97479.00;;;5.70
8227;BMP180;4154;48.810;9.012;2024-02-14T07:25:58;97477.00;;;5.80
8227;BMP180;4154;48.810;9.012;2024-02-14T07:28:23;97468.00;;;5.90
8227;BMP180;4154;48.810;9.012;2024-02-14T07:30:49;97477.00;;;6.00
8227;BMP180;4154;48.810;9.012;2024-02-14T07:33:15;97483.00;;;6.10
8227;BMP180;4154;48.810;9.012;2024-02-14T07:35:41;97481.00;;;6.00
8227;BMP180;4154;48.810;9.012;2024-02-14T07:38:08;97489.00;;;6.10
8227;BMP180;4154;48.810;9.012;2024-02-14T07:40:34;97484.00;;;6.20
8227;BMP180;4154;48.810;9.012;2024-02-14T07:43:00;97496.00;;;6.20
8227;BMP180;4154;48.810;9.012;2024-02-14T07:45:26;97493.00;;;6.20
8227;BMP180;4154;48.810;9.012;2024-02-14T07:47:52;97493.00;;;6.20
8227;BMP180;4154;48.810;9.012;2024-02-14T07:50:19;97499.00;;;6.20
8227;BMP180;4154;48.810;9.012;2024-02-14T07:52:45;97498.00;;;6.20
8227;BMP180;4154;48.810;9.012;2024-02-14T07:55:11;97498.00;;;6.40
8227;BMP180;4154;48.810;9.012;2024-02-14T07:57:39;97504.00;;;6.40
8227;BMP180;4154;48.810;9.012;2024-02-14T08:00:09;97495.00;;;6.40
8227;BMP180;4154;48.810;9.012;2024-02-14T08:02:35;97499.00;;;6.50
8227;BMP180;4154;48.810;9.012;2024-02-14T08:05:01;97509.00;;;6.60
8227;BMP180;4154;48.810;9.012;2024-02-14T08:07:27;97513.00;;;6.50
8227;BMP180;4154;48.810;9.012;2024-02-14T08:09:54;97522.00;;;6.60
8227;BMP180;4154;48.810;9.012;2024-02-14T08:12:20;97515.00;;;6.60
8227;BMP180;4154;48.810;9.012;2024-02-14T08:14:46;97510.00;;;6.70
8227;BMP180;4154;48.810;9.012;2024-02-14T08:17:13;97528.00;;;6.80
8227;BMP180;4154;48.810;9.012;2024-02-14T08:19:39;97500.00;;;6.80
8227;BMP180;4154;48.810;9.012;2024-02-14T08:22:05;97518.00;;;7.00
8227;BMP180;4154;48.810;9.012;2024-02-14T08:24:32;97513.00;;;7.00
8227;BMP180;4154;48.810;9.012;2024-02-14T08:26:57;97527.00;;;7.10
8227;BMP180;4154;48.810;9.012;2024-02-14T08:29:23;97530.00;;;7.10
8227;BMP180;4154;48.810;9.012;2024-02-14T08:31:49;97514.00;;;7.30
8227;BMP180;4154;48.810;9.012;2024-02-14T08:34:15;97525.00;;;7.30
8227;BMP180;4154;48.810;9.012;2024-02-14T08:36:42;97533.00;;;7.40
8227;BMP180;4154;48.810;9.012;2024-02-14T08:39:08;97529.00;;;7.40
8227;BMP180;4154;48.810;9.012;2024-02-14T08:41:38;97541.00;;;7.40
8227;BMP180;4154;48.810;9.012;2024-02-14T08:44:04;97535.00;;;7.40
8227;BMP180;4154;48.810;9.012;2024-02-14T08:46:32;97538.00;;;7.50
8227;BMP180;4154;48.810;9.012;2024-02-14T08:49:01;97534.00;;;7.50
8227;BMP180;4154;48.810;9.012;2024-02-14T08:51:36;97534.00;;;7.50
8227;BMP180;4154;48.810;9.012;2024-02-14T08:54:04;97529.00;;;7.60
8227;BMP180;4154;48.810;9.012;2024-02-14T08:56:32;97529.00;;;7.60
8227;BMP180;4154;48.810;9.012;2024-02-14T08:59:01;97534.00;;;7.70
8227;BMP180;4154;48.810;9.012;2024-02-14T09:01:31;97546.00;;;7.70
8227;BMP180;4154;48.810;9.012;2024-02-14T09:03:57;97544.00;;;7.80
8227;BMP180;4154;48.810;9.012;2024-02-14T09:06:24;97542.00;;;7.80
8227;BMP180;4154;48.810;9.012;2024-02-14T09:08:52;97549.00;;;7.90
8227;BMP180;4154;48.810;9.012;2024-02-14T09:11:19;97560.00;;;8.00
8227;BMP180;4154;48.810;9.012;2024-02-14T09:13:45;97549.00;;;8.00
8227;BMP180;4154;48.810;9.012;2024-02-14T09:16:13;97548.00;;;8.10
8227;BMP180;4154;48.810;9.012;2024-02-14T09:18:40;97550.00;;;8.10
8227;BMP180;4154;48.810;9.012;2024-02-14T09:21:06;97550.00;;;8.20
8227;BMP180;4154;48.810;9.012;2024-02-14T09:23:32;97542.00;;;8.30
8227;BMP180;4154;48.810;9.012;2024-02-14T09:25:58;97544.00;;;8.50
8227;BMP180;4154;48.810;9.012;2024-02-14T09:28:25;97536.00;;;8.50
8227;BMP180;4154;48.810;9.012;2024-02-14T09:30:51;97532.00;;;8.50
8227;BMP180;4154;48.810;9.012;2024-02-14T09:33:16;97533.00;;;8.60
8227;BMP180;4154;48.810;9.012;2024-02-14T09:35:42;97531.00;;;8.80
8227;BMP180;4154;48.810;9.012;2024-02-14T09:38:11;97533.00;;;8.70
8227;BMP180;4154;48.810;9.012;2024-02-14T09:40:43;97528.00;;;8.80
8227;BMP180;4154;48.810;9.012;2024-02-14T09:43:37;97530.00;;;8.90
8227;BMP180;4154;48.810;9.012;2024-02-14T09:46:03;97530.00;;;9.00
8227;BMP180;4154;48.810;9.012;2024-02-14T09:48:30;97535.00;;;9.00
8227;BMP180;4154;48.810;9.012;2024-02-14T09:50:57;97530.00;;;9.00
8227;BMP180;4154;48.810;9.012;2024-02-14T09:53:23;97546.00;;;9.10
8227;BMP180;4154;48.810;9.012;2024-02-14T09:55:50;97543.00;;;9.20
8227;BMP180;4154;48.810;9.012;2024-02-14T09:58:17;97534.00;;;9.10
8227;BMP180;4154;48.810;9.012;2024-02-14T10:00:43;97534.00;;;9.10
8227;BMP180;4154;48.810;9.012;2024-02-14T10:03:09;97536.00;;;9.20
8227;BMP180;4154;48.810;9.012;2024-02-14T10:05:36;97531.00;;;9.00
8227;BMP180;4154;48.810;9.012;2024-02-14T10:08:02;97523.00;;;9.20
8227;BMP180;4154;48.810;9.012;2024-02-14T10:10:28;97520.00;;;9.20
8227;BMP180;4154;48.810;9.012;2024-02-14T10:12:55;97522.00;;;9.10
8227;BMP180;4154;48.810;9.012;2024-02-14T10:15:22;97524.00;;;9.10
8227;BMP180;4154;48.810;9.012;2024-02-14T10:17:48;97530.00;;;9.10
8227;BMP180;4154;48.810;9.012;2024-02-14T10:20:17;97531.00;;;9.20
8227;BMP180;4154;48.810;9.012;2024-02-14T10:22:43;97528.00;;;9.30
8227;BMP180;4154;48.810;9.012;2024-02-14T10:25:10;97521.00;;;9.20
8227;BMP180;4154;48.810;9.012;2024-02-14T10:27:37;97525.00;;;9.30
8227;BMP180;4154;48.810;9.012;2024-02-14T10:30:08;97524.00;;;9.40
8227;BMP180;4154;48.810;9.012;2024-02-14T10:32:36;97527.00;;;9.50
8227;BMP180;4154;48.810;9.012;2024-02-14T10:35:05;97528.00;;;9.70
8227;BMP180;4154;48.810;9.012;2024-02-14T10:37:35;97527.00;;;9.70
8227;BMP180;4154;48.810;9.012;2024-02-14T10:40:05;97510.00;;;9.80
8227;BMP180;4154;48.810;9.012;2024-02-14T10:42:32;97522.00;;;9.80
8227;BMP180;4154;48.810;9.012;2024-02-14T10:45:02;97513.00;;;9.90
8227;BMP180;4154;48.810;9.012;2024-02-14T10:47:34;97524.00;;;9.90
8227;BMP180;4154;48.810;9.012;2024-02-14T10:50:06;97520.00;;;10.00
8227;BMP180;4154;48.810;9.012;2024-02-14T10:52:35;97523.00;;;10.20
8227;BMP180;4154;48.810;9.012;2024-02-14T10:55:05;97523.00;;;10.30
8227;BMP180;4154;48.810;9.012;2024-02-14T10:57:32;97534.00;;;10.30
8227;BMP180;4154;48.810;9.012;2024-02-14T11:00:06;97525.00;;;10.40
8227;BMP180;4154;48.810;9.012;2024-02-14T11:02:33;97533.00;;;10.50
8227;BMP180;4154;48.810;9.012;2024-02-14T11:04:59;97539.00;;;10.60
8227;BMP180;4154;48.810;9.012;2024-02-14T11:07:28;97544.00;;;10.60
8227;BMP180;4154;48.810;9.012;2024-02-14T11:10:07;97544.00;;;10.70
8227;BMP180;4154;48.810;9.012;2024-02-14T11:12:34;97561.00;;;10.70
8227;BMP180;4154;48.810;9.012;2024-02-14T11:17:43;97563.00;;;10.70
8227;BMP180;4154;48.810;9.012;2024-02-14T11:20:17;97545.00;;;10.70
8227;BMP180;4154;48.810;9.012;2024-02-14T11:23:01;97561.00;;;10.80
8227;BMP180;4154;48.810;9.012;2024-02-14T11:25:35;97567.00;;;10.70
8227;BMP180;4154;48.810;9.012;2024-02-14T11:28:15;97563.00;;;10.80
8227;BMP180;4154;48.810;9.012;2024-02-14T11:30:43;97569.00;;;10.80
8227;BMP180;4154;48.810;9.012;2024-02-14T11:33:22;97571.00;;;10.80
8227;BMP180;4154;48.810;9.012;2024-02-14T11:35:51;97574.00;;;10.80
8227;BMP180;4154;48.810;9.012;2024-02-14T11:38:19;97582.00;;;10.80
8227;BMP180;4154;48.810;9.012;2024-02-14T11:40:45;97574.00;;;10.80
8227;BMP180;4154;48.810;9.012;2024-02-14T11:43:16;97571.00;;;11.00
8227;BMP180;4154;48.810;9.012;2024-02-14T11:45:46;97569.00;;;11.00
8227;BMP180;4154;48.810;9.012;2024-02-14T11:48:16;97572.00;;;11.00
8227;BMP180;4154;48.810;9.012;2024-02-14T11:50:44;97565.00;;;11.20
8227;BMP180;4154;48.810;9.012;2024-02-14T11:53:14;97565.00;;;11.10
8227;BMP180;4154;48.810;9.012;2024-02-14T11:55:45;97564.00;;;11.20
8227;BMP180;4154;48.810;9.012;2024-02-14T11:58:17;97570.00;;;11.20
8227;BMP180;4154;48.810;9.012;2024-02-14T12:00:44;97567.00;;;11.20
8227;BMP180;4154;48.810;9.012;2024-02-14T12:03:32;97567.00;;;11.40
8227;BMP180;4154;48.810;9.012;2024-02-14T12:05:58;97565.00;;;11.40
8227;BMP180;4154;48.810;9.012;2024-02-14T12:08:24;97566.00;;;11.40
8227;BMP180;4154;48.810;9.012;2024-02-14T12:10:49;97557.00;;;11.50
8227;BMP180;4154;48.810;9.012;2024-02-14T12:13:19;97562.00;;;11.60
8227;BMP180;4154;48.810;9.012;2024-02-14T12:15:48;97562.00;;;11.60
8227;BMP180;4154;48.810;9.012;2024-02-14T12:18:15;97560.00;;;11.70
8227;BMP180;4154;48.810;9.012;2024-02-14T12:20:42;97563.00;;;11.80
8227;BMP180;4154;48.810;9.012;2024-02-14T12:23:17;97558.00;;;11.90
8227;BMP180;4154;48.810;9.012;2024-02-14T12:25:45;97557.00;;;11.90
8227;BMP180;4154;48.810;9.012;2024-02-14T12:28:19;97542.00;;;12.10
8227;BMP180;4154;48.810;9.012;2024-02-14T12:30:50;97550.00;;;12.20
8227;BMP180;4154;48.810;9.012;2024-02-14T12:33:17;97551.00;;;12.20
8227;BMP180;4154;48.810;9.012;2024-02-14T12:35:50;97540.00;;;12.20
8227;BMP180;4154;48.810;9.012;2024-02-14T12:38:20;97538.00;;;12.20
8227;BMP180;4154;48.810;9.012;2024-02-14T12:40:46;97540.00;;;12.30
8227;BMP180;4154;48.810;9.012;2024-02-14T12:43:14;97520.00;;;12.30
8227;BMP180;4154;48.810;9.012;2024-02-14T12:45:43;97534.00;;;12.40
8227;BMP180;4154;48.810;9.012;2024-02-14T12:48:11;97533.00;;;12.50
8227;BMP180;4154;48.810;9.012;2024-02-14T12:50:41;97539.00;;;12.40
8227;BMP180;4154;48.810;9.012;2024-02-14T12:53:13;97531.00;;;12.60
8227;BMP180;4154;48.810;9.012;2024-02-14T12:55:39;97530.00;;;12.70
8227;BMP180;4154;48.810;9.012;2024-02-14T12:58:04;97527.00;;;12.70
8227;BMP180;4154;48.810;9.012;2024-02-14T13:00:30;97522.00;;;12.60
8227;BMP180;4154;48.810;9.012;2024-02-14T13:02:57;97524.00;;;12.70
8227;BMP180;4154;48.810;9.012;2024-02-14T13:05:23;97513.00;;;12.80
8227;BMP180;4154;48.810;9.012;2024-02-14T13:07:49;97513.00;;;12.90
8227;BMP180;4154;48.810;9.012;2024-02-14T13:10:15;97519.00;;;12.90
8227;BMP180;4154;48.810;9.012;2024-02-14T13:12:41;97515.00;;;13.00
8227;BMP180;4154;48.810;9.012;2024-02-14T13:15:09;97510.00;;;13.00
8227;BMP180;4154;48.810;9.012;2024-02-14T13:17:35;97512.00;;;13.10
8227;BMP180;4154;48.810;9.012;2024-02-14T13:20:00;97511.00;;;13.10
8227;BMP180;4154;48.810;9.012;2024-02-14T13:22:27;97510.00;;;13.10
8227;BMP180;4154;48.810;9.012;2024-02-14T13:24:53;97502.00;;;13.30
8227;BMP180;4154;48.810;9.012;2024-02-14T13:27:19;97500.00;;;13.30
8227;BMP180;4154;48.810;9.012;2024-02-14T13:29:49;97504.00;;;13.40
8227;BMP180;4154;48.810;9.012;2024-02-14T13:32:15;97505.00;;;13.40
8227;BMP180;4154;48.810;9.012;2024-02-14T13:34:41;97512.00;;;13.50
8227;BMP180;4154;48.810;9.012;2024-02-14T13:37:09;97500.00;;;13.50
8227;BMP180;4154;48.810;9.012;2024-02-14T13:39:35;97510.00;;;13.40
8227;BMP180;4154;48.810;9.012;2024-02-14T13:42:01;97511.00;;;13.40
8227;BMP180;4154;48.810;9.012;2024-02-14T13:44:27;97514.00;;;13.40
8227;BMP180;4154;48.810;9.012;2024-02-14T13:46:53;97501.00;;;13.40
8227;BMP180;4154;48.810;9.012;2024-02-14T13:49:20;97522.00;;;13.40
8227;BMP180;4154;48.810;9.012;2024-02-14T13:51:51;97520.00;;;13.30
8227;BMP180;4154;48.810;9.012;2024-02-14T13:54:20;97523.00;;;13.50
8227;BMP180;4154;48.810;9.012;2024-02-14T13:56:47;97523.00;;;13.40
8227;BMP180;4154;48.810;9.012;2024-02-14T13:59:14;97524.00;;;13.40
8227;BMP180;4154;48.810;9.012;2024-02-14T14:01:40;97518.00;;;13.40
8227;BMP180;4154;48.810;9.012;2024-02-14T14:04:07;97523.00;;;13.30
8227;BMP180;4154;48.810;9.012;2024-02-14T14:06:33;97526.00;;;13.30
8227;BMP180;4154;48.810;9.012;2024-02-14T14:08:59;97519.00;;;13.30
8227;BMP180;4154;48.810;9.012;2024-02-14T14:11:25;97518.00;;;13.20
8227;BMP180;4154;48.810;9.012;2024-02-14T14:13:51;97528.00;;;13.10
8227;BMP180;4154;48.810;9.012;2024-02-14T14:16:17;97532.00;;;13.10
8227;BMP180;4154;48.810;9.012;2024-02-14T14:18:43;97523.00;;;13.10
8227;BMP180;4154;48.810;9.012;2024-02-14T14:21:08;97524.00;;;13.10
8227;BMP180;4154;48.810;9.012;2024-02-14T14:23:34;97529.00;;;13.20
8227;BMP180;4154;48.810;9.012;2024-02-14T14:26:00;97529.00;;;13.20
8227;BMP180;4154;48.810;9.012;2024-02-14T14:28:26;97524.00;;;13.10
8227;BMP180;4154;48.810;9.012;2024-02-14T14:30:54;97528.00;;;13.10
8227;BMP180;4154;48.810;9.012;2024-02-14T14:33:21;97526.00;;;13.00
8227;BMP180;4154;48.810;9.012;2024-02-14T14:35:47;97530.00;;;13.00
8227;BMP180;4154;48.810;9.012;2024-02-14T14:38:15;97520.00;;;13.00
8227;BMP180;4154;48.810;9.012;2024-02-14T14:40:41;97531.00;;;13.00
8227;BMP180;4154;48.810;9.012;2024-02-14T14:43:07;97527.00;;;13.00
8227;BMP180;4154;48.810;9.012;2024-02-14T14:45:33;97527.00;;;12.90